Danali, Honduras
Current Conditions -  °F | °C
As of 9:00 PM on Monday 26 Jan 2015 (Local Time) from MHTG Reporting Station
Drizzle Drizzle  
Wind Chill: 59°   Ceiling: 1800
Heat Index: 59°   Visibility: 4mi
Dew Point: 59°   Wind: 12mph
Humidity: 100%   Direction: 360°N
Pressure: 30.18"   Gusts: NA
Location:  14.02°N, 86.3°W
Report Text: MHTG 270300Z 36010KT 6000 -DZ FEW008 BKN018 15/15 Q1022 A3018NOSIG
Loading
Personal Weather Stations






























Interactive Weather Map New forecast layout! Learn more

10-Day Weather Forecast

Advertisements
Track Severe Weather on mobile